sensor_id;sensor_type;location;lat;lon;timestamp;P1;durP1;ratioP1;P2;durP2;ratioP2
19816;SDS011;68323;49.394;8.434;2023-05-07T00:00:11;11.33;;;6.70;;
19816;SDS011;68323;49.394;8.434;2023-05-07T00:02:37;10.63;;;5.93;;
19816;SDS011;68323;49.394;8.434;2023-05-07T00:05:02;9.90;;;6.47;;
19816;SDS011;68323;49.394;8.434;2023-05-07T00:07:28;11.73;;;6.70;;
19816;SDS011;68323;49.394;8.434;2023-05-07T00:09:54;7.67;;;6.03;;
19816;SDS011;68323;49.394;8.434;2023-05-07T00:12:20;9.90;;;6.40;;
19816;SDS011;68323;49.394;8.434;2023-05-07T00:14:45;10.50;;;6.30;;
19816;SDS011;68323;49.394;8.434;2023-05-07T00:17:11;10.90;;;6.07;;
19816;SDS011;68323;49.394;8.434;2023-05-07T00:19:37;10.83;;;6.40;;
19816;SDS011;68323;49.394;8.434;2023-05-07T00:22:02;10.20;;;6.53;;
19816;SDS011;68323;49.394;8.434;2023-05-07T00:24:28;8.70;;;5.83;;
19816;SDS011;68323;49.394;8.434;2023-05-07T00:26:53;12.63;;;6.10;;
19816;SDS011;68323;49.394;8.434;2023-05-07T00:29:19;8.90;;;6.03;;
19816;SDS011;68323;49.394;8.434;2023-05-07T00:31:44;10.77;;;5.67;;
19816;SDS011;68323;49.394;8.434;2023-05-07T00:34:10;9.57;;;5.93;;
19816;SDS011;68323;49.394;8.434;2023-05-07T00:36:36;10.23;;;6.10;;
19816;SDS011;68323;49.394;8.434;2023-05-07T00:39:01;10.13;;;5.70;;
19816;SDS011;68323;49.394;8.434;2023-05-07T00:41:28;9.03;;;5.90;;
19816;SDS011;68323;49.394;8.434;2023-05-07T00:43:55;13.73;;;5.90;;
19816;SDS011;68323;49.394;8.434;2023-05-07T00:46:21;9.70;;;5.80;;
19816;SDS011;68323;49.394;8.434;2023-05-07T00:48:47;12.97;;;6.30;;
19816;SDS011;68323;49.394;8.434;2023-05-07T00:51:14;10.87;;;6.30;;
19816;SDS011;68323;49.394;8.434;2023-05-07T00:53:40;9.50;;;6.30;;
19816;SDS011;68323;49.394;8.434;2023-05-07T00:56:06;10.17;;;6.73;;
19816;SDS011;68323;49.394;8.434;2023-05-07T00:58:32;9.43;;;6.40;;
19816;SDS011;68323;49.394;8.434;2023-05-07T01:00:58;8.63;;;6.27;;
19816;SDS011;68323;49.394;8.434;2023-05-07T01:03:24;7.93;;;6.17;;
19816;SDS011;68323;49.394;8.434;2023-05-07T01:05:50;13.17;;;6.40;;
19816;SDS011;68323;49.394;8.434;2023-05-07T01:08:17;11.20;;;6.43;;
19816;SDS011;68323;49.394;8.434;2023-05-07T01:10:43;9.47;;;6.80;;
19816;SDS011;68323;49.394;8.434;2023-05-07T01:13:09;12.57;;;6.73;;
19816;SDS011;68323;49.394;8.434;2023-05-07T01:15:37;9.53;;;6.63;;
19816;SDS011;68323;49.394;8.434;2023-05-07T01:18:03;8.87;;;7.10;;
19816;SDS011;68323;49.394;8.434;2023-05-07T01:20:28;7.50;;;6.70;;
19816;SDS011;68323;49.394;8.434;2023-05-07T01:22:55;9.90;;;7.00;;
19816;SDS011;68323;49.394;8.434;2023-05-07T01:25:22;9.00;;;7.40;;
19816;SDS011;68323;49.394;8.434;2023-05-07T01:27:48;9.40;;;7.60;;
19816;SDS011;68323;49.394;8.434;2023-05-07T01:30:13;10.23;;;7.53;;
19816;SDS011;68323;49.394;8.434;2023-05-07T01:35:12;10.67;;;7.20;;
19816;SDS011;68323;49.394;8.434;2023-05-07T01:37:42;12.07;;;7.33;;
19816;SDS011;68323;49.394;8.434;2023-05-07T01:40:07;9.47;;;7.33;;
19816;SDS011;68323;49.394;8.434;2023-05-07T01:42:34;10.13;;;7.57;;
19816;SDS011;68323;49.394;8.434;2023-05-07T01:45:00;11.23;;;7.60;;
19816;SDS011;68323;49.394;8.434;2023-05-07T01:47:26;10.60;;;7.40;;
19816;SDS011;68323;49.394;8.434;2023-05-07T01:49:52;11.20;;;8.03;;
19816;SDS011;68323;49.394;8.434;2023-05-07T01:52:17;10.10;;;7.33;;
19816;SDS011;68323;49.394;8.434;2023-05-07T01:54:43;9.33;;;7.73;;
19816;SDS011;68323;49.394;8.434;2023-05-07T01:57:09;11.80;;;8.40;;
19816;SDS011;68323;49.394;8.434;2023-05-07T01:59:35;14.37;;;8.27;;
19816;SDS011;68323;49.394;8.434;2023-05-07T02:02:00;9.73;;;7.93;;
19816;SDS011;68323;49.394;8.434;2023-05-07T02:04:26;12.87;;;7.83;;
19816;SDS011;68323;49.394;8.434;2023-05-07T02:06:51;10.33;;;8.20;;
19816;SDS011;68323;49.394;8.434;2023-05-07T02:09:17;9.43;;;7.63;;
19816;SDS011;68323;49.394;8.434;2023-05-07T02:11:43;11.13;;;7.80;;
19816;SDS011;68323;49.394;8.434;2023-05-07T02:14:09;11.17;;;8.43;;
19816;SDS011;68323;49.394;8.434;2023-05-07T02:16:35;14.53;;;8.00;;
19816;SDS011;68323;49.394;8.434;2023-05-07T02:19:00;9.07;;;7.47;;
19816;SDS011;68323;49.394;8.434;2023-05-07T02:21:26;15.93;;;7.83;;
19816;SDS011;68323;49.394;8.434;2023-05-07T02:23:51;12.67;;;8.23;;
19816;SDS011;68323;49.394;8.434;2023-05-07T02:26:17;14.50;;;8.10;;
19816;SDS011;68323;49.394;8.434;2023-05-07T02:28:43;14.63;;;8.00;;
19816;SDS011;68323;49.394;8.434;2023-05-07T02:31:08;12.13;;;8.20;;
19816;SDS011;68323;49.394;8.434;2023-05-07T02:33:34;12.10;;;8.17;;
19816;SDS011;68323;49.394;8.434;2023-05-07T02:36:09;12.87;;;7.90;;
19816;SDS011;68323;49.394;8.434;2023-05-07T02:38:36;13.23;;;7.50;;
19816;SDS011;68323;49.394;8.434;2023-05-07T02:41:02;9.57;;;8.10;;
19816;SDS011;68323;49.394;8.434;2023-05-07T02:43:27;10.67;;;7.93;;
19816;SDS011;68323;49.394;8.434;2023-05-07T02:46:03;11.27;;;7.77;;
19816;SDS011;68323;49.394;8.434;2023-05-07T02:48:29;9.27;;;7.63;;
19816;SDS011;68323;49.394;8.434;2023-05-07T02:50:55;11.70;;;7.77;;
19816;SDS011;68323;49.394;8.434;2023-05-07T02:53:21;15.70;;;8.13;;
19816;SDS011;68323;49.394;8.434;2023-05-07T02:55:46;13.43;;;7.90;;
19816;SDS011;68323;49.394;8.434;2023-05-07T02:58:12;9.83;;;7.67;;
19816;SDS011;68323;49.394;8.434;2023-05-07T03:00:37;12.27;;;7.23;;
19816;SDS011;68323;49.394;8.434;2023-05-07T03:03:03;8.17;;;7.20;;
19816;SDS011;68323;49.394;8.434;2023-05-07T03:05:28;10.37;;;7.93;;
19816;SDS011;68323;49.394;8.434;2023-05-07T03:07:54;10.23;;;7.50;;
19816;SDS011;68323;49.394;8.434;2023-05-07T03:10:19;12.17;;;7.67;;
19816;SDS011;68323;49.394;8.434;2023-05-07T03:12:45;11.77;;;7.70;;
19816;SDS011;68323;49.394;8.434;2023-05-07T03:15:10;10.83;;;8.07;;
19816;SDS011;68323;49.394;8.434;2023-05-07T03:17:37;12.17;;;7.83;;
19816;SDS011;68323;49.394;8.434;2023-05-07T03:20:03;10.13;;;8.03;;
19816;SDS011;68323;49.394;8.434;2023-05-07T03:22:29;10.90;;;7.83;;
19816;SDS011;68323;49.394;8.434;2023-05-07T03:24:55;10.07;;;7.70;;
19816;SDS011;68323;49.394;8.434;2023-05-07T03:27:20;10.20;;;7.53;;
19816;SDS011;68323;49.394;8.434;2023-05-07T03:29:46;8.57;;;7.60;;
19816;SDS011;68323;49.394;8.434;2023-05-07T03:32:11;8.77;;;7.83;;
19816;SDS011;68323;49.394;8.434;2023-05-07T03:34:37;12.43;;;7.40;;
19816;SDS011;68323;49.394;8.434;2023-05-07T03:37:02;11.40;;;7.80;;
19816;SDS011;68323;49.394;8.434;2023-05-07T03:39:28;9.47;;;7.67;;
19816;SDS011;68323;49.394;8.434;2023-05-07T03:41:53;10.93;;;7.70;;
19816;SDS011;68323;49.394;8.434;2023-05-07T03:44:19;10.67;;;8.00;;
19816;SDS011;68323;49.394;8.434;2023-05-07T03:46:45;10.03;;;7.70;;
19816;SDS011;68323;49.394;8.434;2023-05-07T03:49:10;13.27;;;8.10;;
19816;SDS011;68323;49.394;8.434;2023-05-07T03:51:36;11.63;;;7.77;;
19816;SDS011;68323;49.394;8.434;2023-05-07T03:54:01;12.33;;;8.23;;
19816;SDS011;68323;49.394;8.434;2023-05-07T03:56:27;9.93;;;7.60;;
19816;SDS011;68323;49.394;8.434;2023-05-07T03:58:53;10.53;;;7.83;;
19816;SDS011;68323;49.394;8.434;2023-05-07T04:01:18;10.97;;;8.17;;
19816;SDS011;68323;49.394;8.434;2023-05-07T04:03:44;8.47;;;7.00;;
19816;SDS011;68323;49.394;8.434;2023-05-07T04:06:09;10.33;;;7.37;;
19816;SDS011;68323;49.394;8.434;2023-05-07T04:08:35;8.63;;;6.90;;
19816;SDS011;68323;49.394;8.434;2023-05-07T04:11:01;12.03;;;6.87;;
19816;SDS011;68323;49.394;8.434;2023-05-07T04:13:26;11.67;;;7.43;;
19816;SDS011;68323;49.394;8.434;2023-05-07T04:15:52;9.33;;;7.00;;
19816;SDS011;68323;49.394;8.434;2023-05-07T04:18:19;11.70;;;7.53;;
19816;SDS011;68323;49.394;8.434;2023-05-07T04:20:45;10.27;;;7.10;;
19816;SDS011;68323;49.394;8.434;2023-05-07T04:23:10;8.17;;;6.60;;
19816;SDS011;68323;49.394;8.434;2023-05-07T04:25:36;12.30;;;6.93;;
19816;SDS011;68323;49.394;8.434;2023-05-07T04:28:01;10.87;;;7.70;;
19816;SDS011;68323;49.394;8.434;2023-05-07T04:30:27;8.90;;;7.07;;
19816;SDS011;68323;49.394;8.434;2023-05-07T04:32:52;12.10;;;6.77;;
19816;SDS011;68323;49.394;8.434;2023-05-07T04:35:18;9.43;;;6.30;;
19816;SDS011;68323;49.394;8.434;2023-05-07T04:37:43;7.77;;;5.90;;
19816;SDS011;68323;49.394;8.434;2023-05-07T04:40:09;11.73;;;6.80;;
19816;SDS011;68323;49.394;8.434;2023-05-07T04:42:35;9.40;;;6.40;;
19816;SDS011;68323;49.394;8.434;2023-05-07T04:45:01;7.80;;;5.93;;
19816;SDS011;68323;49.394;8.434;2023-05-07T04:47:27;9.90;;;6.50;;
19816;SDS011;68323;49.394;8.434;2023-05-07T04:49:52;10.30;;;6.10;;
19816;SDS011;68323;49.394;8.434;2023-05-07T04:52:18;8.30;;;5.57;;
19816;SDS011;68323;49.394;8.434;2023-05-07T04:54:44;8.63;;;5.50;;
19816;SDS011;68323;49.394;8.434;2023-05-07T04:57:10;6.87;;;5.60;;
19816;SDS011;68323;49.394;8.434;2023-05-07T04:59:36;9.20;;;5.83;;
19816;SDS011;68323;49.394;8.434;2023-05-07T05:02:02;6.40;;;5.27;;
19816;SDS011;68323;49.394;8.434;2023-05-07T05:04:29;7.60;;;5.37;;
19816;SDS011;68323;49.394;8.434;2023-05-07T05:06:55;10.00;;;5.90;;
19816;SDS011;68323;49.394;8.434;2023-05-07T05:09:20;7.10;;;5.50;;
19816;SDS011;68323;49.394;8.434;2023-05-07T05:11:46;5.70;;;4.90;;
19816;SDS011;68323;49.394;8.434;2023-05-07T05:14:11;6.23;;;5.20;;
19816;SDS011;68323;49.394;8.434;2023-05-07T05:16:37;9.70;;;5.23;;
19816;SDS011;68323;49.394;8.434;2023-05-07T05:19:02;7.20;;;5.53;;
19816;SDS011;68323;49.394;8.434;2023-05-07T05:21:28;6.77;;;5.37;;
19816;SDS011;68323;49.394;8.434;2023-05-07T05:23:53;6.57;;;5.33;;
19816;SDS011;68323;49.394;8.434;2023-05-07T05:26:19;9.27;;;5.70;;
19816;SDS011;68323;49.394;8.434;2023-05-07T05:28:46;7.97;;;5.47;;
19816;SDS011;68323;49.394;8.434;2023-05-07T05:31:11;6.37;;;5.40;;
19816;SDS011;68323;49.394;8.434;2023-05-07T05:33:37;6.90;;;5.30;;
19816;SDS011;68323;49.394;8.434;2023-05-07T05:36:03;6.63;;;5.10;;
19816;SDS011;68323;49.394;8.434;2023-05-07T05:38:28;8.57;;;5.60;;
19816;SDS011;68323;49.394;8.434;2023-05-07T05:40:54;7.73;;;5.13;;
19816;SDS011;68323;49.394;8.434;2023-05-07T05:43:20;8.13;;;5.50;;
19816;SDS011;68323;49.394;8.434;2023-05-07T05:45:45;6.43;;;4.90;;
19816;SDS011;68323;49.394;8.434;2023-05-07T05:48:11;7.03;;;5.00;;
19816;SDS011;68323;49.394;8.434;2023-05-07T05:50:36;9.73;;;5.17;;
19816;SDS011;68323;49.394;8.434;2023-05-07T05:53:02;12.70;;;5.27;;
19816;SDS011;68323;49.394;8.434;2023-05-07T05:55:28;7.10;;;4.73;;
19816;SDS011;68323;49.394;8.434;2023-05-07T05:57:53;8.43;;;4.60;;
19816;SDS011;68323;49.394;8.434;2023-05-07T06:00:19;6.53;;;4.60;;
19816;SDS011;68323;49.394;8.434;2023-05-07T06:02:47;7.37;;;4.63;;
19816;SDS011;68323;49.394;8.434;2023-05-07T06:05:13;6.77;;;4.70;;
19816;SDS011;68323;49.394;8.434;2023-05-07T06:07:38;6.63;;;4.97;;
19816;SDS011;68323;49.394;8.434;2023-05-07T06:10:04;6.50;;;4.53;;
19816;SDS011;68323;49.394;8.434;2023-05-07T06:12:30;6.40;;;4.43;;
19816;SDS011;68323;49.394;8.434;2023-05-07T06:14:56;5.70;;;4.40;;
19816;SDS011;68323;49.394;8.434;2023-05-07T06:17:21;7.80;;;4.90;;
19816;SDS011;68323;49.394;8.434;2023-05-07T06:19:47;5.57;;;4.63;;
19816;SDS011;68323;49.394;8.434;2023-05-07T06:22:12;6.70;;;4.40;;
19816;SDS011;68323;49.394;8.434;2023-05-07T06:24:38;6.70;;;4.60;;
19816;SDS011;68323;49.394;8.434;2023-05-07T06:27:03;13.30;;;5.03;;
19816;SDS011;68323;49.394;8.434;2023-05-07T06:29:29;19.40;;;6.00;;
19816;SDS011;68323;49.394;8.434;2023-05-07T06:32:05;9.53;;;5.20;;
19816;SDS011;68323;49.394;8.434;2023-05-07T06:34:34;5.07;;;4.40;;
19816;SDS011;68323;49.394;8.434;2023-05-07T06:37:00;4.50;;;3.88;;
19816;SDS011;68323;49.394;8.434;2023-05-07T06:39:26;5.43;;;4.10;;
19816;SDS011;68323;49.394;8.434;2023-05-07T06:41:51;6.20;;;4.13;;
19816;SDS011;68323;49.394;8.434;2023-05-07T06:44:17;7.70;;;4.28;;
19816;SDS011;68323;49.394;8.434;2023-05-07T06:46:42;5.25;;;4.13;;
19816;SDS011;68323;49.394;8.434;2023-05-07T06:49:08;5.70;;;4.20;;
19816;SDS011;68323;49.394;8.434;2023-05-07T06:51:33;9.50;;;4.38;;
19816;SDS011;68323;49.394;8.434;2023-05-07T06:53:59;7.75;;;4.90;;
19816;SDS011;68323;49.394;8.434;2023-05-07T06:56:25;5.80;;;4.32;;
19816;SDS011;68323;49.394;8.434;2023-05-07T06:58:50;7.40;;;4.18;;
19816;SDS011;68323;49.394;8.434;2023-05-07T07:01:16;6.28;;;3.70;;
19816;SDS011;68323;49.394;8.434;2023-05-07T07:03:41;5.93;;;4.13;;
19816;SDS011;68323;49.394;8.434;2023-05-07T07:06:07;7.82;;;4.88;;
19816;SDS011;68323;49.394;8.434;2023-05-07T07:08:33;9.60;;;4.78;;
19816;SDS011;68323;49.394;8.434;2023-05-07T07:10:59;6.25;;;4.20;;
19816;SDS011;68323;49.394;8.434;2023-05-07T07:13:25;5.20;;;4.30;;
19816;SDS011;68323;49.394;8.434;2023-05-07T07:15:51;5.40;;;4.40;;
19816;SDS011;68323;49.394;8.434;2023-05-07T07:18:18;5.45;;;3.67;;
19816;SDS011;68323;49.394;8.434;2023-05-07T07:20:43;6.18;;;3.83;;
19816;SDS011;68323;49.394;8.434;2023-05-07T07:23:09;8.52;;;3.75;;
19816;SDS011;68323;49.394;8.434;2023-05-07T07:25:35;7.45;;;4.18;;
19816;SDS011;68323;49.394;8.434;2023-05-07T07:28:00;5.95;;;3.90;;
19816;SDS011;68323;49.394;8.434;2023-05-07T07:30:26;4.80;;;3.97;;
19816;SDS011;68323;49.394;8.434;2023-05-07T07:32:51;5.32;;;3.60;;
19816;SDS011;68323;49.394;8.434;2023-05-07T07:35:17;5.35;;;3.75;;
19816;SDS011;68323;49.394;8.434;2023-05-07T07:37:43;8.85;;;4.05;;
19816;SDS011;68323;49.394;8.434;2023-05-07T07:40:09;4.70;;;3.50;;
19816;SDS011;68323;49.394;8.434;2023-05-07T07:42:35;4.25;;;3.17;;
19816;SDS011;68323;49.394;8.434;2023-05-07T07:45:00;8.02;;;3.80;;
19816;SDS011;68323;49.394;8.434;2023-05-07T07:47:26;7.65;;;3.78;;
19816;SDS011;68323;49.394;8.434;2023-05-07T07:49:51;7.78;;;3.33;;
19816;SDS011;68323;49.394;8.434;2023-05-07T07:52:17;4.50;;;3.72;;
19816;SDS011;68323;49.394;8.434;2023-05-07T07:54:44;4.07;;;3.10;;
19816;SDS011;68323;49.394;8.434;2023-05-07T07:57:09;7.20;;;3.30;;
19816;SDS011;68323;49.394;8.434;2023-05-07T07:59:35;4.97;;;3.25;;
19816;SDS011;68323;49.394;8.434;2023-05-07T08:02:00;3.90;;;3.30;;
19816;SDS011;68323;49.394;8.434;2023-05-07T08:04:26;5.88;;;3.40;;
19816;SDS011;68323;49.394;8.434;2023-05-07T08:06:51;4.30;;;3.13;;
19816;SDS011;68323;49.394;8.434;2023-05-07T08:09:19;5.28;;;3.28;;
19816;SDS011;68323;49.394;8.434;2023-05-07T08:11:47;7.57;;;3.15;;
19816;SDS011;68323;49.394;8.434;2023-05-07T08:14:13;4.43;;;3.05;;
19816;SDS011;68323;49.394;8.434;2023-05-07T08:16:40;4.22;;;3.28;;
19816;SDS011;68323;49.394;8.434;2023-05-07T08:19:06;5.80;;;3.40;;
19816;SDS011;68323;49.394;8.434;2023-05-07T08:21:31;4.97;;;3.13;;
19816;SDS011;68323;49.394;8.434;2023-05-07T08:23:57;6.47;;;3.47;;
19816;SDS011;68323;49.394;8.434;2023-05-07T08:26:23;4.80;;;3.28;;
19816;SDS011;68323;49.394;8.434;2023-05-07T08:28:48;5.57;;;3.20;;
19816;SDS011;68323;49.394;8.434;2023-05-07T08:31:14;5.40;;;3.35;;
19816;SDS011;68323;49.394;8.434;2023-05-07T08:33:39;5.35;;;3.00;;
19816;SDS011;68323;49.394;8.434;2023-05-07T08:36:05;4.00;;;2.83;;
19816;SDS011;68323;49.394;8.434;2023-05-07T08:38:31;4.32;;;3.00;;
19816;SDS011;68323;49.394;8.434;2023-05-07T08:40:56;7.43;;;2.90;;
19816;SDS011;68323;49.394;8.434;2023-05-07T08:43:22;4.22;;;2.80;;
19816;SDS011;68323;49.394;8.434;2023-05-07T08:45:53;4.45;;;2.80;;
19816;SDS011;68323;49.394;8.434;2023-05-07T08:48:20;4.78;;;2.83;;
19816;SDS011;68323;49.394;8.434;2023-05-07T08:50:50;4.13;;;3.00;;
19816;SDS011;68323;49.394;8.434;2023-05-07T08:53:16;4.20;;;2.80;;
19816;SDS011;68323;49.394;8.434;2023-05-07T08:55:41;3.88;;;2.65;;
19816;SDS011;68323;49.394;8.434;2023-05-07T08:58:07;3.97;;;2.78;;
19816;SDS011;68323;49.394;8.434;2023-05-07T09:00:33;4.78;;;2.80;;
19816;SDS011;68323;49.394;8.434;2023-05-07T09:02:59;4.28;;;2.60;;
19816;SDS011;68323;49.394;8.434;2023-05-07T09:05:26;4.03;;;2.58;;
19816;SDS011;68323;49.394;8.434;2023-05-07T09:07:51;4.47;;;2.60;;
19816;SDS011;68323;49.394;8.434;2023-05-07T09:10:17;3.40;;;2.80;;
19816;SDS011;68323;49.394;8.434;2023-05-07T09:12:42;5.75;;;2.67;;
19816;SDS011;68323;49.394;8.434;2023-05-07T09:15:08;4.38;;;2.92;;
19816;SDS011;68323;49.394;8.434;2023-05-07T09:17:34;5.35;;;3.10;;
19816;SDS011;68323;49.394;8.434;2023-05-07T09:20:03;6.25;;;2.72;;
19816;SDS011;68323;49.394;8.434;2023-05-07T09:22:33;4.45;;;2.55;;
19816;SDS011;68323;49.394;8.434;2023-05-07T09:24:59;4.35;;;2.22;;
19816;SDS011;68323;49.394;8.434;2023-05-07T09:27:24;5.70;;;2.35;;
19816;SDS011;68323;49.394;8.434;2023-05-07T09:29:51;3.72;;;2.63;;
19816;SDS011;68323;49.394;8.434;2023-05-07T09:32:17;3.85;;;2.90;;
19816;SDS011;68323;49.394;8.434;2023-05-07T09:34:42;4.57;;;2.25;;
19816;SDS011;68323;49.394;8.434;2023-05-07T09:37:08;3.78;;;2.70;;
19816;SDS011;68323;49.394;8.434;2023-05-07T09:39:43;5.80;;;2.78;;
19816;SDS011;68323;49.394;8.434;2023-05-07T09:42:11;5.55;;;2.67;;
19816;SDS011;68323;49.394;8.434;2023-05-07T09:44:37;3.53;;;2.53;;
19816;SDS011;68323;49.394;8.434;2023-05-07T09:47:06;5.20;;;2.35;;
19816;SDS011;68323;49.394;8.434;2023-05-07T09:49:36;4.25;;;3.20;;
19816;SDS011;68323;49.394;8.434;2023-05-07T09:52:04;5.68;;;3.30;;
19816;SDS011;68323;49.394;8.434;2023-05-07T09:54:36;5.93;;;3.00;;
19816;SDS011;68323;49.394;8.434;2023-05-07T09:57:05;4.38;;;2.88;;
19816;SDS011;68323;49.394;8.434;2023-05-07T09:59:32;4.32;;;2.80;;
19816;SDS011;68323;49.394;8.434;2023-05-07T10:02:00;5.15;;;3.25;;
19816;SDS011;68323;49.394;8.434;2023-05-07T10:04:26;5.25;;;3.20;;
19816;SDS011;68323;49.394;8.434;2023-05-07T10:06:52;4.82;;;2.80;;
19816;SDS011;68323;49.394;8.434;2023-05-07T10:09:18;4.15;;;3.17;;
19816;SDS011;68323;49.394;8.434;2023-05-07T10:11:45;4.53;;;3.30;;
19816;SDS011;68323;49.394;8.434;2023-05-07T10:14:12;5.55;;;3.10;;
19816;SDS011;68323;49.394;8.434;2023-05-07T10:16:39;6.25;;;3.63;;
19816;SDS011;68323;49.394;8.434;2023-05-07T10:19:06;4.53;;;3.67;;
19816;SDS011;68323;49.394;8.434;2023-05-07T10:21:34;4.75;;;3.60;;
19816;SDS011;68323;49.394;8.434;2023-05-07T10:24:21;4.28;;;3.53;;
19816;SDS011;68323;49.394;8.434;2023-05-07T10:26:51;4.93;;;3.78;;
19816;SDS011;68323;49.394;8.434;2023-05-07T10:29:21;6.43;;;3.70;;
19816;SDS011;68323;49.394;8.434;2023-05-07T10:31:58;5.43;;;3.70;;
19816;SDS011;68323;49.394;8.434;2023-05-07T10:34:39;3.92;;;3.47;;
19816;SDS011;68323;49.394;8.434;2023-05-07T10:37:08;3.75;;;3.35;;
19816;SDS011;68323;49.394;8.434;2023-05-07T10:39:35;6.13;;;2.90;;
19816;SDS011;68323;49.394;8.434;2023-05-07T10:42:11;5.60;;;3.08;;
19816;SDS011;68323;49.394;8.434;2023-05-07T10:44:37;3.53;;;2.72;;
19816;SDS011;68323;49.394;8.434;2023-05-07T10:47:07;3.90;;;2.78;;
19816;SDS011;68323;49.394;8.434;2023-05-07T10:50:22;4.95;;;2.60;;
19816;SDS011;68323;49.394;8.434;2023-05-07T10:52:31;4.07;;;2.70;;
19816;SDS011;68323;49.394;8.434;2023-05-07T10:57:43;6.55;;;2.58;;
19816;SDS011;68323;49.394;8.434;2023-05-07T11:03:07;3.50;;;2.80;;
19816;SDS011;68323;49.394;8.434;2023-05-07T11:05:32;3.45;;;2.38;;
19816;SDS011;68323;49.394;8.434;2023-05-07T11:07:59;6.00;;;2.50;;
19816;SDS011;68323;49.394;8.434;2023-05-07T11:10:48;6.55;;;3.00;;
19816;SDS011;68323;49.394;8.434;2023-05-07T11:18:51;5.55;;;2.60;;
19816;SDS011;68323;49.394;8.434;2023-05-07T11:21:37;5.30;;;2.78;;
19816;SDS011;68323;49.394;8.434;2023-05-07T11:24:07;3.78;;;2.50;;
19816;SDS011;68323;49.394;8.434;2023-05-07T11:26:41;5.25;;;2.60;;
19816;SDS011;68323;49.394;8.434;2023-05-07T11:29:12;5.65;;;2.20;;
19816;SDS011;68323;49.394;8.434;2023-05-07T11:31:50;4.43;;;2.35;;
19816;SDS011;68323;49.394;8.434;2023-05-07T11:34:20;4.53;;;2.28;;
19816;SDS011;68323;49.394;8.434;2023-05-07T11:36:50;3.42;;;2.00;;
19816;SDS011;68323;49.394;8.434;2023-05-07T11:39:50;2.75;;;1.80;;
19816;SDS011;68323;49.394;8.434;2023-05-07T11:44:53;2.28;;;1.70;;
19816;SDS011;68323;49.394;8.434;2023-05-07T11:47:19;3.47;;;2.05;;
19816;SDS011;68323;49.394;8.434;2023-05-07T11:49:49;2.45;;;1.75;;
19816;SDS011;68323;49.394;8.434;2023-05-07T11:52:16;8.75;;;1.95;;
19816;SDS011;68323;49.394;8.434;2023-05-07T11:54:48;3.67;;;1.90;;
19816;SDS011;68323;49.394;8.434;2023-05-07T11:57:14;4.80;;;1.50;;
19816;SDS011;68323;49.394;8.434;2023-05-07T11:59:40;3.65;;;2.45;;
19816;SDS011;68323;49.394;8.434;2023-05-07T12:02:06;6.15;;;3.05;;
19816;SDS011;68323;49.394;8.434;2023-05-07T12:04:33;3.25;;;1.98;;
19816;SDS011;68323;49.394;8.434;2023-05-07T12:06:58;4.28;;;2.20;;
19816;SDS011;68323;49.394;8.434;2023-05-07T12:09:24;3.83;;;1.63;;
19816;SDS011;68323;49.394;8.434;2023-05-07T12:11:51;3.47;;;1.73;;
19816;SDS011;68323;49.394;8.434;2023-05-07T12:14:16;3.28;;;1.70;;
19816;SDS011;68323;49.394;8.434;2023-05-07T12:16:42;5.13;;;1.85;;
19816;SDS011;68323;49.394;8.434;2023-05-07T12:19:09;2.25;;;1.80;;
19816;SDS011;68323;49.394;8.434;2023-05-07T12:21:37;5.13;;;1.50;;
19816;SDS011;68323;49.394;8.434;2023-05-07T12:24:04;2.40;;;1.80;;
19816;SDS011;68323;49.394;8.434;2023-05-07T12:26:30;2.17;;;1.45;;
19816;SDS011;68323;49.394;8.434;2023-05-07T12:28:59;2.47;;;1.55;;
19816;SDS011;68323;49.394;8.434;2023-05-07T12:31:28;3.47;;;1.67;;
19816;SDS011;68323;49.394;8.434;2023-05-07T12:33:53;3.30;;;1.50;;
19816;SDS011;68323;49.394;8.434;2023-05-07T12:36:19;3.65;;;1.80;;
19816;SDS011;68323;49.394;8.434;2023-05-07T12:38:46;4.40;;;1.67;;
19816;SDS011;68323;49.394;8.434;2023-05-07T12:41:14;2.97;;;1.70;;
19816;SDS011;68323;49.394;8.434;2023-05-07T12:43:41;4.47;;;1.60;;
19816;SDS011;68323;49.394;8.434;2023-05-07T12:46:09;2.83;;;1.60;;
19816;SDS011;68323;49.394;8.434;2023-05-07T12:48:38;2.67;;;1.70;;
19816;SDS011;68323;49.394;8.434;2023-05-07T12:51:08;3.28;;;1.90;;
19816;SDS011;68323;49.394;8.434;2023-05-07T12:53:39;2.80;;;1.92;;
19816;SDS011;68323;49.394;8.434;2023-05-07T12:56:07;2.97;;;1.50;;
19816;SDS011;68323;49.394;8.434;2023-05-07T12:58:33;1.60;;;1.50;;
19816;SDS011;68323;49.394;8.434;2023-05-07T13:01:01;3.00;;;1.70;;
19816;SDS011;68323;49.394;8.434;2023-05-07T13:03:31;4.50;;;1.77;;
19816;SDS011;68323;49.394;8.434;2023-05-07T13:06:06;3.13;;;1.90;;
19816;SDS011;68323;49.394;8.434;2023-05-07T13:08:39;3.58;;;1.60;;
19816;SDS011;68323;49.394;8.434;2023-05-07T13:11:07;15.55;;;2.13;;
19816;SDS011;68323;49.394;8.434;2023-05-07T13:13:34;5.55;;;1.92;;
19816;SDS011;68323;49.394;8.434;2023-05-07T13:16:01;5.43;;;1.80;;
19816;SDS011;68323;49.394;8.434;2023-05-07T13:18:31;4.65;;;1.90;;
19816;SDS011;68323;49.394;8.434;2023-05-07T13:20:58;2.33;;;1.70;;
19816;SDS011;68323;49.394;8.434;2023-05-07T13:23:24;1.70;;;1.60;;
19816;SDS011;68323;49.394;8.434;2023-05-07T13:25:50;2.05;;;1.70;;
19816;SDS011;68323;49.394;8.434;2023-05-07T13:28:17;2.38;;;1.60;;
19816;SDS011;68323;49.394;8.434;2023-05-07T13:30:43;2.85;;;1.80;;
19816;SDS011;68323;49.394;8.434;2023-05-07T13:33:08;2.75;;;1.75;;
19816;SDS011;68323;49.394;8.434;2023-05-07T13:35:34;2.45;;;1.52;;
19816;SDS011;68323;49.394;8.434;2023-05-07T13:38:00;3.85;;;2.10;;
19816;SDS011;68323;49.394;8.434;2023-05-07T13:40:26;3.88;;;2.67;;
19816;SDS011;68323;49.394;8.434;2023-05-07T13:42:51;5.20;;;1.83;;
19816;SDS011;68323;49.394;8.434;2023-05-07T13:45:18;4.13;;;2.22;;
19816;SDS011;68323;49.394;8.434;2023-05-07T13:47:44;6.00;;;2.28;;
19816;SDS011;68323;49.394;8.434;2023-05-07T13:50:10;5.93;;;2.22;;
19816;SDS011;68323;49.394;8.434;2023-05-07T13:52:38;4.68;;;2.60;;
19816;SDS011;68323;49.394;8.434;2023-05-07T13:55:06;5.32;;;2.10;;
19816;SDS011;68323;49.394;8.434;2023-05-07T13:57:32;4.68;;;2.55;;
19816;SDS011;68323;49.394;8.434;2023-05-07T13:59:57;6.23;;;2.30;;
19816;SDS011;68323;49.394;8.434;2023-05-07T14:02:23;5.83;;;2.13;;
19816;SDS011;68323;49.394;8.434;2023-05-07T14:04:48;6.67;;;2.43;;
19816;SDS011;68323;49.394;8.434;2023-05-07T14:07:14;13.17;;;3.17;;
19816;SDS011;68323;49.394;8.434;2023-05-07T14:09:40;15.27;;;4.27;;
19816;SDS011;68323;49.394;8.434;2023-05-07T14:12:05;12.87;;;3.80;;
19816;SDS011;68323;49.394;8.434;2023-05-07T14:14:31;10.63;;;4.80;;
19816;SDS011;68323;49.394;8.434;2023-05-07T14:16:57;11.63;;;4.50;;
19816;SDS011;68323;49.394;8.434;2023-05-07T14:19:22;15.07;;;4.60;;
19816;SDS011;68323;49.394;8.434;2023-05-07T14:21:48;8.53;;;3.53;;
19816;SDS011;68323;49.394;8.434;2023-05-07T14:24:13;7.33;;;3.50;;
19816;SDS011;68323;49.394;8.434;2023-05-07T14:26:39;11.33;;;5.20;;
19816;SDS011;68323;49.394;8.434;2023-05-07T14:29:05;8.87;;;5.03;;
19816;SDS011;68323;49.394;8.434;2023-05-07T14:31:30;16.57;;;6.53;;
19816;SDS011;68323;49.394;8.434;2023-05-07T14:33:56;17.77;;;6.73;;
19816;SDS011;68323;49.394;8.434;2023-05-07T14:36:24;25.47;;;8.80;;
19816;SDS011;68323;49.394;8.434;2023-05-07T14:38:51;19.83;;;9.13;;
19816;SDS011;68323;49.394;8.434;2023-05-07T14:41:19;8.93;;;4.90;;
19816;SDS011;68323;49.394;8.434;2023-05-07T14:43:46;14.67;;;7.20;;
19816;SDS011;68323;49.394;8.434;2023-05-07T14:46:15;16.13;;;7.30;;
19816;SDS011;68323;49.394;8.434;2023-05-07T14:48:42;12.93;;;5.93;;
19816;SDS011;68323;49.394;8.434;2023-05-07T14:51:09;14.67;;;7.37;;
19816;SDS011;68323;49.394;8.434;2023-05-07T14:53:34;15.43;;;7.87;;
19816;SDS011;68323;49.394;8.434;2023-05-07T14:56:00;15.53;;;7.70;;